Wetterdaten: Woche 02.03.15 - 08.03.15 (KW10)
Datum Zeit Temp. Aussen +5cm Feuchte Auss Luftdruck Regen Sonnenschein Regendauer Solar Windben
02.03.2015 00:00 8,6 C 6,6 C 82 % 996,8 hPa 0,2 l/m 0,00 h 0,33 h 0 W/m 36,0 km/h (5 Bft)
02.03.2015 01:00 7,7 C 5,6 C 84 % 997,3 hPa 0,0 l/m 0,00 h 0,33 h 0 W/m 36,5 km/h (5 Bft)
02.03.2015 02:00 7,0 C 5,3 C 82 % 998,5 hPa 0,0 l/m 0,00 h 0,00 h 0 W/m 33,3 km/h (5 Bft)
02.03.2015 03:00 6,2 C 4,4 C 76 % 999,8 hPa 0,0 l/m 0,00 h 0,00 h 0 W/m 32,8 km/h (5 Bft)
02.03.2015 04:00 5,4 C 3,6 C 76 % 1000,3 hPa 0,0 l/m 0,00 h 0,00 h 0 W/m 23,1 km/h (4 Bft)
02.03.2015 05:00 4,8 C 3,2 C 80 % 1000,9 hPa 0,0 l/m 0,00 h 0,00 h 0 W/m 18,0 km/h (3 Bft)
02.03.2015 06:00 4,4 C 2,6 C 80 % 1001,5 hPa 0,0 l/m 0,00 h 0,00 h 0 W/m 16,5 km/h (3 Bft)
02.03.2015 07:00 3,8 C 2,1 C 82 % 1002,2 hPa 0,0 l/m 0,17 h 0,00 h 18 W/m 14,4 km/h (3 Bft)
02.03.2015 08:00 3,9 C 2,7 C 83 % 1003,2 hPa 0,0 l/m 1,00 h 0,00 h 124 W/m 23,4 km/h (4 Bft)
02.03.2015 09:00 5,4 C 4,0 C 80 % 1003,9 hPa 0,0 l/m 1,00 h 0,00 h 298 W/m 28,9 km/h (5 Bft)
02.03.2015 10:00 6,8 C 5,6 C 75 % 1004,6 hPa 0,0 l/m 1,00 h 0,00 h 431 W/m 34,0 km/h (5 Bft)
02.03.2015 11:00 7,9 C 6,5 C 68 % 1005,0 hPa 0,0 l/m 0,67 h 0,00 h 367 W/m 34,7 km/h (5 Bft)
02.03.2015 12:00 8,3 C 7,3 C 65 % 1005,2 hPa 0,0 l/m 0,63 h 0,00 h 411 W/m 33,1 km/h (5 Bft)
02.03.2015 13:00 9,1 C 8,5 C 62 % 1005,1 hPa 0,0 l/m 0,67 h 0,00 h 412 W/m 33,1 km/h (5 Bft)
02.03.2015 14:00 8,4 C 7,5 C 62 % 1004,9 hPa 0,0 l/m 0,10 h 0,07 h 141 W/m 32,3 km/h (5 Bft)
02.03.2015 15:00 5,0 C 2,6 C 82 % 1006,3 hPa 3,2 l/m 0,00 h 0,90 h 17 W/m 31,3 km/h (5 Bft)
02.03.2015 16:00 2,9 C 2,0 C 92 % 1007,3 hPa 0,6 l/m 0,47 h 0,30 h 99 W/m 24,7 km/h (4 Bft)
02.03.2015 17:00 3,4 C 2,3 C 93 % 1008,2 hPa 0,0 l/m 0,40 h 0,00 h 53 W/m 26,1 km/h (4 Bft)
02.03.2015 18:00 3,5 C 1,8 C 91 % 1009,4 hPa 0,0 l/m 0,07 h 0,00 h 7 W/m 17,0 km/h (3 Bft)
02.03.2015 19:00 3,6 C 1,7 C 84 % 1010,4 hPa 0,0 l/m 0,00 h 0,00 h 0 W/m 26,6 km/h (4 Bft)
02.03.2015 20:00 4,2 C 2,3 C 76 % 1011,7 hPa 0,0 l/m 0,00 h 0,17 h 0 W/m 31,9 km/h (5 Bft)
02.03.2015 21:00 3,9 C 1,9 C 76 % 1012,7 hPa 0,0 l/m 0,00 h 0,00 h 0 W/m 24,4 km/h (4 Bft)
02.03.2015 22:00 3,6 C 1,7 C 76 % 1013,8 hPa 0,0 l/m 0,00 h 0,00 h 0 W/m 24,8 km/h (4 Bft)
02.03.2015 23:00 3,3 C 1,7 C 80 % 1014,8 hPa 0,0 l/m 0,00 h 0,00 h 0 W/m 26,8 km/h (4 Bft)
03.03.2015 00:00 3,1 C 1,7 C 83 % 1015,4 hPa 0,0 l/m 0,00 h 0,00 h 0 W/m 23,7 km/h (4 Bft)
03.03.2015 01:00 3,0 C 1,4 C 83 % 1016,0 hPa 0,0 l/m 0,00 h 0,00 h 0 W/m 25,0 km/h (4 Bft)
03.03.2015 02:00 2,8 C 1,1 C 86 % 1016,6 hPa 0,0 l/m 0,00 h 0,00 h 0 W/m 24,8 km/h (4 Bft)
03.03.2015 03:00 2,6 C 1,2 C 88 % 1016,6 hPa 0,0 l/m 0,00 h 0,00 h 0 W/m 20,5 km/h (4 Bft)
03.03.2015 04:00 2,7 C 1,4 C 89 % 1016,7 hPa 0,0 l/m 0,00 h 0,00 h 0 W/m 24,7 km/h (4 Bft)
03.03.2015 05:00 3,0 C 1,7 C 89 % 1016,8 hPa 0,0 l/m 0,00 h 0,00 h 0 W/m 29,2 km/h (5 Bft)
03.03.2015 06:00 2,9 C 1,5 C 88 % 1016,8 hPa 0,0 l/m 0,00 h 0,00 h 0 W/m 29,6 km/h (5 Bft)
03.03.2015 07:00 2,9 C 1,7 C 88 % 1017,0 hPa 0,0 l/m 0,33 h 0,00 h 25 W/m 28,2 km/h (4 Bft)
03.03.2015 08:00 4,0 C 3,2 C 86 % 1017,2 hPa 0,0 l/m 0,37 h 0,00 h 80 W/m 30,1 km/h (5 Bft)
03.03.2015 09:00 4,8 C 4,2 C 83 % 1017,4 hPa 0,0 l/m 0,47 h 0,00 h 167 W/m 29,2 km/h (5 Bft)
03.03.2015 10:00 5,9 C 5,4 C 80 % 1017,1 hPa 0,0 l/m 0,77 h 0,00 h 265 W/m 29,7 km/h (5 Bft)
03.03.2015 11:00 7,3 C 7,1 C 73 % 1016,4 hPa 0,0 l/m 0,97 h 0,00 h 340 W/m 33,8 km/h (5 Bft)
03.03.2015 12:00 7,9 C 7,5 C 68 % 1015,5 hPa 0,0 l/m 0,57 h 0,00 h 291 W/m 34,7 km/h (5 Bft)
03.03.2015 13:00 9,2 C 8,7 C 65 % 1014,4 hPa 0,0 l/m 0,80 h 0,00 h 356 W/m 42,1 km/h (6 Bft)
03.03.2015 14:00 7,6 C 5,6 C 75 % 1014,6 hPa 0,6 l/m 0,03 h 0,77 h 106 W/m 49,0 km/h (6 Bft)
03.03.2015 15:00 5,8 C 4,4 C 92 % 1014,6 hPa 0,6 l/m 0,00 h 0,47 h 77 W/m 28,0 km/h (4 Bft)
03.03.2015 16:00 5,1 C 3,2 C 91 % 1014,8 hPa 1,4 l/m 0,00 h 0,53 h 36 W/m 33,4 km/h (5 Bft)
03.03.2015 17:00 4,1 C 2,9 C 93 % 1014,6 hPa 0,0 l/m 0,27 h 0,00 h 41 W/m 26,4 km/h (4 Bft)
03.03.2015 18:00 4,4 C 2,8 C 93 % 1015,3 hPa 0,0 l/m 0,13 h 0,00 h 9 W/m 17,4 km/h (3 Bft)
03.03.2015 19:00 4,3 C 2,8 C 94 % 1016,1 hPa 0,0 l/m 0,00 h 0,13 h 0 W/m 21,8 km/h (4 Bft)
03.03.2015 20:00 4,1 C 2,2 C 92 % 1016,5 hPa 0,0 l/m 0,00 h 0,00 h 0 W/m 15,7 km/h (3 Bft)
03.03.2015 21:00 3,9 C 2,1 C 90 % 1017,4 hPa 0,0 l/m 0,00 h 0,03 h 0 W/m 20,5 km/h (4 Bft)
03.03.2015 22:00 3,5 C 1,6 C 90 % 1017,8 hPa 0,0 l/m 0,00 h 0,00 h 0 W/m 15,3 km/h (3 Bft)
03.03.2015 23:00 3,2 C 1,2 C 90 % 1018,5 hPa 0,0 l/m 0,00 h 0,53 h 0 W/m 15,8 km/h (3 Bft)
04.03.2015 00:00 2,8 C 1,1 C 91 % 1018,8 hPa 0,0 l/m 0,00 h 0,00 h 0 W/m 21,3 km/h (4 Bft)
04.03.2015 01:00 2,7 C 0,8 C 91 % 1019,2 hPa 0,0 l/m 0,00 h 0,00 h 0 W/m 17,1 km/h (3 Bft)
04.03.2015 02:00 2,3 C 0,6 C 90 % 1019,8 hPa 0,0 l/m 0,00 h 0,00 h 0 W/m 17,7 km/h (3 Bft)
04.03.2015 03:00 2,3 C 0,6 C 91 % 1020,2 hPa 0,0 l/m 0,00 h 0,00 h 0 W/m 17,6 km/h (3 Bft)
04.03.2015 04:00 2,2 C 0,6 C 92 % 1020,4 hPa 0,0 l/m 0,00 h 0,00 h 0 W/m 18,9 km/h (3 Bft)
04.03.2015 05:00 1,9 C 0,2 C 92 % 1020,7 hPa 0,0 l/m 0,00 h 0,00 h 0 W/m 17,0 km/h (3 Bft)
04.03.2015 06:00 1,6 C 0,0 C 92 % 1021,2 hPa 0,0 l/m 0,00 h 0,00 h 0 W/m 16,6 km/h (3 Bft)
04.03.2015 07:00 1,5 C 0,3 C 91 % 1021,6 hPa 0,0 l/m 0,13 h 0,00 h 18 W/m 15,0 km/h (3 Bft)
04.03.2015 08:00 2,0 C 1,1 C 91 % 1022,3 hPa 0,0 l/m 1,00 h 0,00 h 136 W/m 20,8 km/h (4 Bft)
04.03.2015 09:00 3,5 C 2,3 C 89 % 1022,9 hPa 0,2 l/m 1,00 h 0,00 h 285 W/m 25,3 km/h (4 Bft)
04.03.2015 10:00 5,3 C 4,1 C 85 % 1023,2 hPa 0,0 l/m 0,90 h 0,00 h 384 W/m 27,7 km/h (4 Bft)
04.03.2015 11:00 6,1 C 5,6 C 82 % 1023,8 hPa 0,0 l/m 0,27 h 0,00 h 220 W/m 26,2 km/h (4 Bft)
04.03.2015 12:00 6,6 C 6,2 C 79 % 1024,2 hPa 0,0 l/m 0,07 h 0,00 h 199 W/m 26,9 km/h (4 Bft)
04.03.2015 13:00 7,0 C 6,3 C 76 % 1024,3 hPa 0,0 l/m 0,20 h 0,07 h 196 W/m 25,9 km/h (4 Bft)
04.03.2015 14:00 7,1 C 6,2 C 77 % 1024,4 hPa 0,0 l/m 0,17 h 0,30 h 169 W/m 23,1 km/h (4 Bft)
04.03.2015 15:00 6,6 C 4,2 C 79 % 1025,0 hPa 0,6 l/m 0,10 h 0,87 h 121 W/m 23,3 km/h (4 Bft)
04.03.2015 16:00 6,0 C 3,8 C 85 % 1025,7 hPa 0,0 l/m 0,30 h 0,47 h 108 W/m 22,3 km/h (4 Bft)
04.03.2015 17:00 5,4 C 3,3 C 83 % 1026,4 hPa 0,0 l/m 0,30 h 0,07 h 44 W/m 22,9 km/h (4 Bft)
04.03.2015 18:00 5,3 C 2,9 C 84 % 1027,6 hPa 0,6 l/m 0,03 h 0,80 h 9 W/m 21,7 km/h (4 Bft)
04.03.2015 19:00 4,4 C 2,5 C 89 % 1028,3 hPa 0,2 l/m 0,00 h 0,77 h 0 W/m 15,3 km/h (3 Bft)
04.03.2015 20:00 4,5 C 2,7 C 90 % 1029,0 hPa 0,0 l/m 0,00 h 0,07 h 0 W/m 21,9 km/h (4 Bft)
04.03.2015 21:00 4,4 C 2,5 C 90 % 1029,9 hPa 0,0 l/m 0,00 h 0,07 h 0 W/m 21,0 km/h (4 Bft)
04.03.2015 22:00 4,3 C 2,6 C 91 % 1030,9 hPa 0,0 l/m 0,00 h 0,00 h 0 W/m 21,2 km/h (4 Bft)
04.03.2015 23:00 4,3 C 2,8 C 91 % 1031,8 hPa 0,0 l/m 0,00 h 0,00 h 0 W/m 17,2 km/h (3 Bft)
05.03.2015 00:00 4,3 C 2,8 C 92 % 1032,7 hPa 0,0 l/m 0,00 h 0,00 h 0 W/m 14,7 km/h (3 Bft)
05.03.2015 01:00 4,2 C 2,5 C 92 % 1033,7 hPa 0,0 l/m 0,00 h 0,00 h 0 W/m 12,1 km/h (2 Bft)
05.03.2015 02:00 3,8 C 2,1 C 92 % 1034,2 hPa 0,0 l/m 0,00 h 0,00 h 0 W/m 10,4 km/h (2 Bft)
05.03.2015 03:00 3,2 C 1,4 C 93 % 1034,7 hPa 0,0 l/m 0,00 h 0,00 h 0 W/m 9,4 km/h (2 Bft)
05.03.2015 04:00 2,7 C 1,1 C 94 % 1035,3 hPa 0,0 l/m 0,00 h 0,00 h 0 W/m 6,2 km/h (2 Bft)
05.03.2015 05:00 2,4 C 1,0 C 94 % 1035,9 hPa 0,0 l/m 0,00 h 0,00 h 0 W/m 8,0 km/h (2 Bft)
05.03.2015 06:00 2,8 C 1,7 C 95 % 1036,3 hPa 0,0 l/m 0,00 h 0,00 h 0 W/m 7,5 km/h (2 Bft)
05.03.2015 07:00 2,8 C 1,7 C 96 % 1036,5 hPa 0,0 l/m 0,00 h 0,00 h 11 W/m 8,3 km/h (2 Bft)
05.03.2015 08:00 2,8 C 2,1 C 96 % 1037,0 hPa 0,0 l/m 0,00 h 0,00 h 36 W/m 7,8 km/h (2 Bft)
05.03.2015 09:00 3,3 C 3,0 C 96 % 1037,5 hPa 0,0 l/m 0,00 h 0,00 h 89 W/m 8,7 km/h (2 Bft)
05.03.2015 10:00 4,4 C 4,4 C 97 % 1037,5 hPa 0,0 l/m 0,43 h 0,00 h 205 W/m 7,1 km/h (2 Bft)
05.03.2015 11:00 5,9 C 6,3 C 96 % 1037,6 hPa 0,0 l/m 0,67 h 0,00 h 264 W/m 9,0 km/h (2 Bft)
05.03.2015 12:00 7,7 C 8,1 C 83 % 1037,5 hPa 0,0 l/m 0,83 h 0,00 h 350 W/m 10,4 km/h (2 Bft)
05.03.2015 13:00 8,7 C 8,8 C 72 % 1037,1 hPa 0,0 l/m 0,73 h 0,00 h 284 W/m 13,9 km/h (3 Bft)
05.03.2015 14:00 9,6 C 9,7 C 67 % 1036,5 hPa 0,0 l/m 0,77 h 0,00 h 320 W/m 16,0 km/h (3 Bft)
05.03.2015 15:00 9,5 C 8,6 C 67 % 1036,5 hPa 0,0 l/m 0,40 h 0,00 h 190 W/m 16,3 km/h (3 Bft)
05.03.2015 16:00 9,4 C 8,1 C 67 % 1036,5 hPa 0,0 l/m 0,60 h 0,00 h 150 W/m 12,9 km/h (3 Bft)
05.03.2015 17:00 8,6 C 6,5 C 71 % 1036,3 hPa 0,0 l/m 0,03 h 0,00 h 50 W/m 8,7 km/h (2 Bft)
05.03.2015 18:00 7,6 C 4,1 C 73 % 1036,4 hPa 0,0 l/m 0,17 h 0,00 h 9 W/m 5,1 km/h (1 Bft)
05.03.2015 19:00 5,9 C 2,2 C 77 % 1036,8 hPa 0,0 l/m 0,00 h 0,00 h 0 W/m 3,3 km/h (1 Bft)
05.03.2015 20:00 4,3 C 1,1 C 82 % 1036,8 hPa 0,0 l/m 0,00 h 0,00 h 0 W/m 4,5 km/h (1 Bft)
05.03.2015 21:00 3,2 C 0,6 C 86 % 1036,9 hPa 0,0 l/m 0,00 h 0,00 h 0 W/m 5,0 km/h (1 Bft)
05.03.2015 22:00 2,5 C 0,0 C 88 % 1037,2 hPa 0,0 l/m 0,00 h 0,00 h 0 W/m 5,8 km/h (2 Bft)
05.03.2015 23:00 1,9 C -0,3 C 90 % 1036,9 hPa 0,0 l/m 0,00 h 0,00 h 0 W/m 5,5 km/h (1 Bft)
06.03.2015 00:00 1,3 C -0,3 C 90 % 1036,8 hPa 0,0 l/m 0,00 h 0,00 h 0 W/m 5,6 km/h (1 Bft)
06.03.2015 01:00 1,8 C 1,3 C 92 % 1036,7 hPa 0,0 l/m 0,00 h 0,00 h 0 W/m 5,0 km/h (1 Bft)
06.03.2015 02:00 2,6 C 1,9 C 93 % 1036,4 hPa 0,0 l/m 0,00 h 0,00 h 0 W/m 6,2 km/h (2 Bft)
06.03.2015 03:00 3,3 C 2,5 C 91 % 1036,2 hPa 0,0 l/m 0,00 h 0,00 h 0 W/m 8,0 km/h (2 Bft)
06.03.2015 04:00 3,8 C 2,8 C 88 % 1036,2 hPa 0,0 l/m 0,00 h 0,00 h 0 W/m 11,5 km/h (2 Bft)
06.03.2015 05:00 4,0 C 2,8 C 87 % 1036,3 hPa 0,0 l/m 0,00 h 0,00 h 0 W/m 12,0 km/h (2 Bft)
06.03.2015 06:00 4,0 C 2,8 C 86 % 1036,2 hPa 0,0 l/m 0,00 h 0,00 h 0 W/m 11,3 km/h (2 Bft)
06.03.2015 07:00 4,0 C 2,9 C 86 % 1036,0 hPa 0,0 l/m 0,00 h 0,00 h 12 W/m 12,3 km/h (3 Bft)
06.03.2015 08:00 4,3 C 3,6 C 86 % 1036,2 hPa 0,0 l/m 0,00 h 0,00 h 50 W/m 13,5 km/h (3 Bft)
06.03.2015 09:00 5,0 C 4,4 C 84 % 1036,3 hPa 0,0 l/m 0,00 h 0,00 h 70 W/m 15,1 km/h (3 Bft)
06.03.2015 10:00 5,8 C 5,5 C 82 % 1036,4 hPa 0,0 l/m 0,00 h 0,00 h 130 W/m 17,8 km/h (3 Bft)
06.03.2015 11:00 6,7 C 6,4 C 80 % 1036,4 hPa 0,0 l/m 0,00 h 0,00 h 161 W/m 18,5 km/h (3 Bft)
06.03.2015 12:00 7,6 C 8,1 C 80 % 1036,0 hPa 0,0 l/m 0,53 h 0,00 h 271 W/m 17,8 km/h (3 Bft)
06.03.2015 13:00 8,9 C 9,3 C 75 % 1035,1 hPa 0,0 l/m 0,77 h 0,00 h 295 W/m 15,9 km/h (3 Bft)
06.03.2015 14:00 9,0 C 8,2 C 73 % 1034,8 hPa 0,0 l/m 0,00 h 0,00 h 131 W/m 12,2 km/h (2 Bft)
06.03.2015 15:00 8,8 C 7,9 C 73 % 1034,2 hPa 0,0 l/m 0,00 h 0,00 h 103 W/m 13,3 km/h (3 Bft)
06.03.2015 16:00 8,7 C 7,5 C 73 % 1034,1 hPa 0,0 l/m 0,00 h 0,00 h 59 W/m 9,0 km/h (2 Bft)
06.03.2015 17:00 8,6 C 7,0 C 74 % 1034,1 hPa 0,0 l/m 0,07 h 0,00 h 39 W/m 5,9 km/h (2 Bft)
06.03.2015 18:00 8,2 C 5,6 C 75 % 1034,3 hPa 0,0 l/m 0,20 h 0,00 h 13 W/m 5,0 km/h (1 Bft)
06.03.2015 19:00 7,3 C 4,1 C 77 % 1033,8 hPa 0,0 l/m 0,00 h 0,00 h 0 W/m 6,7 km/h (2 Bft)
06.03.2015 20:00 6,2 C 3,0 C 80 % 1033,4 hPa 0,0 l/m 0,00 h 0,00 h 0 W/m 7,5 km/h (2 Bft)
06.03.2015 21:00 5,1 C 1,5 C 81 % 1033,3 hPa 0,0 l/m 0,00 h 0,00 h 0 W/m 5,6 km/h (1 Bft)
06.03.2015 22:00 3,8 C 1,1 C 85 % 1033,4 hPa 0,0 l/m 0,00 h 0,00 h 0 W/m 7,2 km/h (2 Bft)
06.03.2015 23:00 3,1 C 0,5 C 87 % 1033,5 hPa 0,0 l/m 0,00 h 0,00 h 0 W/m 6,0 km/h (2 Bft)
07.03.2015 00:00 2,6 C 0,1 C 89 % 1033,2 hPa 0,0 l/m 0,00 h 0,00 h 0 W/m 6,2 km/h (2 Bft)
07.03.2015 01:00 2,3 C 0,3 C 91 % 1032,7 hPa 0,0 l/m 0,00 h 0,00 h 0 W/m 9,2 km/h (2 Bft)
07.03.2015 02:00 2,2 C 0,0 C 91 % 1032,4 hPa 0,0 l/m 0,00 h 0,00 h 0 W/m 8,5 km/h (2 Bft)
07.03.2015 03:00 2,1 C 0,1 C 91 % 1031,8 hPa 0,0 l/m 0,00 h 0,00 h 0 W/m 9,0 km/h (2 Bft)
07.03.2015 04:00 1,9 C 0,3 C 91 % 1031,4 hPa 0,0 l/m 0,00 h 0,00 h 0 W/m 9,8 km/h (2 Bft)
07.03.2015 05:00 1,8 C 0,2 C 91 % 1031,1 hPa 0,0 l/m 0,00 h 0,00 h 0 W/m 10,6 km/h (2 Bft)
07.03.2015 06:00 1,5 C 0,0 C 91 % 1030,7 hPa 0,0 l/m 0,00 h 0,00 h 4 W/m 11,8 km/h (2 Bft)
07.03.2015 07:00 1,3 C 0,0 C 91 % 1030,3 hPa 0,0 l/m 0,03 h 0,00 h 23 W/m 11,4 km/h (2 Bft)
07.03.2015 08:00 1,6 C 1,2 C 92 % 1030,2 hPa 0,0 l/m 0,30 h 0,00 h 99 W/m 11,6 km/h (2 Bft)
07.03.2015 09:00 3,3 C 3,5 C 91 % 1030,4 hPa 0,0 l/m 1,00 h 0,00 h 256 W/m 13,4 km/h (3 Bft)
07.03.2015 10:00 6,2 C 6,0 C 84 % 1030,5 hPa 0,0 l/m 1,00 h 0,00 h 344 W/m 16,3 km/h (3 Bft)
07.03.2015 11:00 9,1 C 8,2 C 75 % 1030,1 hPa 0,0 l/m 1,00 h 0,00 h 495 W/m 15,0 km/h (3 Bft)
07.03.2015 12:00 11,4 C 10,1 C 70 % 1029,6 hPa 0,0 l/m 1,00 h 0,00 h 505 W/m 16,4 km/h (3 Bft)
07.03.2015 13:00 13,8 C 13,2 C 60 % 1029,0 hPa 0,0 l/m 1,00 h 0,00 h 519 W/m 19,1 km/h (3 Bft)
07.03.2015 14:00 14,7 C 13,7 C 54 % 1028,5 hPa 0,0 l/m 1,00 h 0,00 h 339 W/m 16,3 km/h (3 Bft)
07.03.2015 15:00 15,7 C 13,3 C 53 % 1028,1 hPa 0,0 l/m 1,00 h 0,00 h 365 W/m 18,0 km/h (3 Bft)
07.03.2015 16:00 15,8 C 12,4 C 53 % 1027,7 hPa 0,0 l/m 0,83 h 0,00 h 185 W/m 18,2 km/h (3 Bft)
07.03.2015 17:00 14,3 C 10,1 C 56 % 1027,4 hPa 0,0 l/m 0,00 h 0,00 h 40 W/m 13,0 km/h (3 Bft)
07.03.2015 18:00 12,3 C 7,6 C 68 % 1027,2 hPa 0,0 l/m 0,03 h 0,00 h 10 W/m 8,9 km/h (2 Bft)
07.03.2015 19:00 10,2 C 5,7 C 73 % 1027,1 hPa 0,0 l/m 0,00 h 0,00 h 0 W/m 8,0 km/h (2 Bft)
07.03.2015 20:00 8,6 C 4,8 C 76 % 1026,7 hPa 0,0 l/m 0,00 h 0,00 h 0 W/m 8,7 km/h (2 Bft)
07.03.2015 21:00 7,6 C 4,2 C 75 % 1026,5 hPa 0,0 l/m 0,00 h 0,00 h 0 W/m 9,2 km/h (2 Bft)
07.03.2015 22:00 6,7 C 3,2 C 76 % 1026,6 hPa 0,0 l/m 0,00 h 0,00 h 0 W/m 8,5 km/h (2 Bft)
07.03.2015 23:00 5,8 C 2,8 C 76 % 1026,4 hPa 0,0 l/m 0,00 h 0,00 h 0 W/m 10,1 km/h (2 Bft)
08.03.2015 00:00 5,5 C 3,3 C 80 % 1026,2 hPa 0,0 l/m 0,00 h 0,00 h 0 W/m 12,9 km/h (3 Bft)
08.03.2015 01:00 5,2 C 3,0 C 82 % 1026,0 hPa 0,0 l/m 0,00 h 0,00 h 0 W/m 15,9 km/h (3 Bft)
08.03.2015 02:00 4,8 C 2,8 C 83 % 1025,9 hPa 0,0 l/m 0,00 h 0,00 h 0 W/m 17,5 km/h (3 Bft)
08.03.2015 03:00 4,5 C 2,4 C 84 % 1025,4 hPa 0,0 l/m 0,00 h 0,00 h 0 W/m 15,5 km/h (3 Bft)
08.03.2015 04:00 4,0 C 1,9 C 85 % 1024,8 hPa 0,0 l/m 0,00 h 0,00 h 0 W/m 12,0 km/h (2 Bft)
08.03.2015 05:00 3,5 C 1,7 C 86 % 1024,6 hPa 0,0 l/m 0,00 h 0,00 h 0 W/m 13,3 km/h (3 Bft)
08.03.2015 06:00 3,4 C 1,6 C 86 % 1024,4 hPa 0,0 l/m 0,00 h 0,00 h 0 W/m 13,7 km/h (3 Bft)
08.03.2015 07:00 3,3 C 1,8 C 87 % 1024,3 hPa 0,0 l/m 0,73 h 0,00 h 40 W/m 15,1 km/h (3 Bft)
08.03.2015 08:00 4,1 C 3,0 C 86 % 1024,5 hPa 0,0 l/m 1,00 h 0,00 h 187 W/m 15,6 km/h (3 Bft)
08.03.2015 09:00 6,7 C 5,0 C 79 % 1024,5 hPa 0,0 l/m 1,00 h 0,00 h 350 W/m 16,2 km/h (3 Bft)
08.03.2015 10:00 10,6 C 8,2 C 68 % 1024,4 hPa 0,0 l/m 1,00 h 0,00 h 482 W/m 13,5 km/h (3 Bft)
08.03.2015 11:00 13,8 C 10,8 C 60 % 1024,2 hPa 0,0 l/m 1,00 h 0,00 h 558 W/m 13,6 km/h (3 Bft)
08.03.2015 12:00 16,6 C 13,5 C 47 % 1023,5 hPa 0,0 l/m 0,97 h 0,00 h 598 W/m 15,2 km/h (3 Bft)
08.03.2015 13:00 18,4 C 15,0 C 38 % 1022,8 hPa 0,0 l/m 1,00 h 0,00 h 564 W/m 18,3 km/h (3 Bft)
08.03.2015 14:00 19,4 C 17,3 C 35 % 1021,9 hPa 0,0 l/m 1,00 h 0,00 h 500 W/m 21,0 km/h (4 Bft)
08.03.2015 15:00 19,7 C 16,8 C 32 % 1021,1 hPa 0,0 l/m 1,00 h 0,00 h 350 W/m 16,9 km/h (3 Bft)
08.03.2015 16:00 19,0 C 15,4 C 36 % 1021,0 hPa 0,0 l/m 1,02 h 0,00 h 178 W/m 11,4 km/h (2 Bft)
08.03.2015 17:00 17,9 C 13,2 C 41 % 1020,9 hPa 0,0 l/m 0,98 h 0,00 h 84 W/m 8,2 km/h (2 Bft)
08.03.2015 18:00 15,8 C 9,1 C 50 % 1021,1 hPa 0,0 l/m 0,23 h 0,00 h 15 W/m 5,7 km/h (1 Bft)
08.03.2015 19:00 12,5 C 6,6 C 59 % 1021,5 hPa 0,0 l/m 0,00 h 0,00 h 0 W/m 4,4 km/h (1 Bft)
08.03.2015 20:00 9,7 C 4,9 C 66 % 1022,0 hPa 0,0 l/m 0,00 h 0,00 h 0 W/m 4,9 km/h (1 Bft)
08.03.2015 21:00 9,3 C 6,6 C 73 % 1023,0 hPa 0,0 l/m 0,00 h 0,00 h 0 W/m 11,6 km/h (2 Bft)
08.03.2015 22:00 9,2 C 5,5 C 79 % 1023,7 hPa 0,0 l/m 0,00 h 0,00 h 0 W/m 9,4 km/h (2 Bft)
08.03.2015 23:00 7,8 C 4,0 C 82 % 1024,2 hPa 0,0 l/m 0,00 h 0,00 h 0 W/m 4,8 km/h (1 Bft)
Min-Datum _ 06.03.15 06.03.15 08.03.15 02.03.15 - - - - 08.03.15
_ Min-Zeit 00:24 00:06 15:28 00:08 - - - - 23:42
Minimum _ 1,2 C -1,1 C 30 % 996,7 hPa - - - - 0,0 km/h (0 Bft)
Max-Datum _ 08.03.15 08.03.15 05.03.15 05.03.15 02.03.15 02.03.15 02.03.15 07.03.15 03.03.15
_ Max-Zeit 15:34 14:38 09:36 11:00 15:42 07:30 00:16 13:16 16:22
Maximum _ 19,9 C 20,0 C 97 % 1037,8 hPa 3,2 l/m 0,03 h 0,03 h 768 W/m 66,9 km/h
W (8 Bft)
Durchschnitt _ 6,0 C 4,3 C 80 % 1024,3 hPa #8,2 l/m #40:40 h #8:02 h 193 W/m 17,1 km/h (3 Bft)
© 2015 W. Hausmann